Time;durP1;ratioP1;P1;durP2;ratioP2;P2;SDS_P1;SDS_P2;PMS_P1;PMS_P2;Temp;Humidity;BMP_temperature;BMP_pressure;BME280_temperature;BME280_humidity;BME280_pressure;Samples;Min_cycle;Max_cycle;Signal;HPM_P1;HPM_P2
2024/01/13 00:02:01;;;;;;;10.07;2.40;;;-1.90;99.90;;;;;;5015731;28;20241;-84
2024/01/13 00:04:26;;;;;;;4.20;2.40;;;-1.80;99.90;;;;;;5014037;28;20197;-79
2024/01/13 00:06:53;;;;;;;3.30;2.23;;;-1.90;99.90;;;;;;5031940;28;20895;-82
2024/01/13 00:09:19;;;;;;;27.42;2.55;;;-1.90;99.90;;;;;;5018547;28;20304;-84
2024/01/13 00:11:45;;;;;;;4.93;2.90;;;-2.10;99.90;;;;;;5019245;28;20271;-83
2024/01/13 00:14:10;;;;;;;4.87;2.20;;;-2.20;99.90;;;;;;5013936;28;20233;-84
2024/01/13 00:16:36;;;;;;;8.60;4.03;;;-2.10;99.90;;;;;;5015894;28;20200;-81
2024/01/13 00:19:01;;;;;;;8.10;4.67;;;-2.00;99.90;;;;;;5018516;28;20490;-82
2024/01/13 00:21:27;;;;;;;10.77;4.38;;;;;;;;;;5019572;28;20813;-80
2024/01/13 00:23:53;;;;;;;6.53;3.20;;;-1.70;99.90;;;;;;5030929;28;20312;-82
2024/01/13 00:26:18;;;;;;;6.60;2.43;;;-1.50;99.90;;;;;;5019339;28;20464;-86
2024/01/13 00:28:44;;;;;;;11.77;4.00;;;-1.60;99.90;;;;;;5019760;28;20680;-84
2024/01/13 00:31:10;;;;;;;4.60;3.00;;;-1.50;99.90;;;;;;5023189;28;20206;-85
2024/01/13 00:33:36;;;;;;;8.33;2.80;;;-1.50;99.90;;;;;;5020083;28;20178;-82
2024/01/13 00:36:02;;;;;;;9.13;3.22;;;-1.50;99.90;;;;;;5017501;28;20198;-82
2024/01/13 00:38:27;;;;;;;11.17;3.13;;;-1.40;99.90;;;;;;5016146;28;20225;-81
2024/01/13 00:40:53;;;;;;;8.83;2.37;;;-1.60;99.90;;;;;;5014449;28;20205;-81
2024/01/13 00:43:18;;;;;;;5.23;2.03;;;-1.40;99.90;;;;;;5014856;28;20707;-83
2024/01/13 00:45:44;;;;;;;8.53;4.60;;;-1.50;99.90;;;;;;5011837;28;20194;-83
2024/01/13 00:48:09;;;;;;;8.87;2.93;;;-1.70;99.90;;;;;;5019854;28;20205;-79
2024/01/13 00:50:35;;;;;;;3.40;2.30;;;-1.70;99.90;;;;;;5022123;28;20293;-79
2024/01/13 00:53:01;;;;;;;3.60;2.37;;;-1.60;99.90;;;;;;5023219;28;20213;-79
2024/01/13 00:55:26;;;;;;;3.07;2.77;;;-1.70;99.90;;;;;;5013516;28;21114;-82
2024/01/13 00:57:52;;;;;;;6.13;1.47;;;-1.80;99.90;;;;;;5023658;28;20188;-83
2024/01/13 01:00:17;;;;;;;3.10;1.77;;;-1.80;99.90;;;;;;5020490;28;21116;-81
2024/01/13 01:02:43;;;;;;;5.80;2.73;;;-1.80;99.90;;;;;;5013809;28;20187;-77
2024/01/13 01:05:08;;;;;;;8.70;2.57;;;-1.80;99.90;;;;;;5013435;28;20204;-79
2024/01/13 01:07:34;;;;;;;5.03;3.20;;;-1.90;99.90;;;;;;5010761;28;20331;-82
2024/01/13 01:09:59;;;;;;;10.50;3.23;;;-1.90;99.90;;;;;;5008277;28;20214;-85
2024/01/13 01:12:25;;;;;;;9.53;3.20;;;-1.90;99.90;;;;;;5021853;28;21089;-77
2024/01/13 01:14:50;;;;;;;9.07;2.47;;;-2.00;99.90;;;;;;5021757;28;20771;-79
2024/01/13 01:17:16;;;;;;;2.77;2.23;;;-2.10;99.90;;;;;;5018514;28;20225;-84
2024/01/13 01:19:41;;;;;;;5.10;2.23;;;-2.10;99.90;;;;;;5015015;28;20899;-85
2024/01/13 01:22:07;;;;;;;9.43;2.83;;;-2.00;99.90;;;;;;5015188;28;20198;-80
2024/01/13 01:24:32;;;;;;;1.90;1.57;;;-1.90;99.90;;;;;;5006653;28;20244;-82
2024/01/13 01:26:58;;;;;;;4.10;2.57;;;-1.90;99.90;;;;;;5010447;28;20216;-82
2024/01/13 01:29:23;;;;;;;2.10;1.63;;;-1.90;99.90;;;;;;5011270;28;20711;-82
2024/01/13 01:31:49;;;;;;;11.23;3.27;;;-1.90;99.90;;;;;;5011704;28;20271;-79
2024/01/13 01:34:15;;;;;;;7.10;3.23;;;-2.10;99.90;;;;;;5019199;28;20469;-81
2024/01/13 01:36:40;;;;;;;2.17;1.30;;;-2.30;99.90;;;;;;5015654;28;20198;-84
2024/01/13 01:39:06;;;;;;;6.10;3.13;;;-2.40;99.90;;;;;;5014117;28;20214;-79
2024/01/13 01:41:32;;;;;;;5.63;2.40;;;-2.40;99.90;;;;;;5014848;28;20232;-82
2024/01/13 01:43:57;;;;;;;7.23;4.03;;;-2.40;99.90;;;;;;5009959;28;20270;-80
2024/01/13 01:46:23;;;;;;;4.73;3.10;;;-2.40;99.90;;;;;;5012884;28;20448;-82
2024/01/13 01:48:55;;;;;;;9.48;3.83;;;-2.40;99.90;;;;;;5008912;28;20189;-83
2024/01/13 01:51:22;;;;;;;6.93;3.38;;;-2.40;99.90;;;;;;5009625;28;20559;-81
2024/01/13 01:53:49;;;;;;;5.25;4.00;;;-2.40;99.90;;;;;;5010812;28;20190;-80
2024/01/13 01:56:27;;;;;;;5.28;2.58;;;-2.40;99.90;;;;;;5029074;28;20194;-80
2024/01/13 01:58:53;;;;;;;1.73;1.08;;;-2.50;99.90;;;;;;5023617;28;20193;-82
2024/01/13 02:01:19;;;;;;;3.47;1.90;;;-2.60;99.90;;;;;;5011929;28;20196;-81
2024/01/13 02:03:46;;;;;;;10.60;5.80;;;-2.50;99.90;;;;;;5013622;28;21292;-84
2024/01/13 02:06:12;;;;;;;3.58;2.75;;;-2.50;99.90;;;;;;5011062;28;20535;-85
2024/01/13 02:08:37;;;;;;;2.33;1.40;;;-2.50;99.90;;;;;;5008647;28;20187;-80
2024/01/13 02:11:03;;;;;;;4.57;1.80;;;-2.40;99.90;;;;;;5011052;28;20214;-82
2024/01/13 02:13:29;;;;;;;2.83;1.57;;;-2.40;99.90;;;;;;5013288;28;20212;-81
2024/01/13 02:15:54;;;;;;;10.88;5.15;;;-2.40;99.90;;;;;;5010231;28;20182;-80
2024/01/13 02:18:20;;;;;;;3.37;1.80;;;-2.50;99.90;;;;;;5014820;28;20193;-85
2024/01/13 02:20:45;;;;;;;3.70;2.37;;;-2.50;99.90;;;;;;5023361;28;20305;-83
2024/01/13 02:23:11;;;;;;;5.20;1.93;;;-2.50;99.90;;;;;;5010934;28;20279;-80
2024/01/13 02:25:36;;;;;;;11.33;2.83;;;-2.40;99.90;;;;;;5013292;28;20208;-80
2024/01/13 02:28:02;;;;;;;4.87;2.87;;;-2.40;99.90;;;;;;5027473;28;20402;-81
2024/01/13 02:30:28;;;;;;;12.80;4.80;;;-2.40;99.90;;;;;;5031126;28;20209;-84
2024/01/13 02:32:53;;;;;;;1.73;1.33;;;-2.30;99.90;;;;;;5015889;28;21251;-79
2024/01/13 02:35:19;;;;;;;12.27;3.77;;;-2.30;99.90;;;;;;5021481;28;20248;-85
2024/01/13 02:37:44;;;;;;;7.07;2.77;;;-2.40;99.90;;;;;;5017393;28;20229;-80
2024/01/13 02:40:10;;;;;;;7.03;2.30;;;-2.40;99.90;;;;;;5014339;28;20294;-83
2024/01/13 02:42:36;;;;;;;5.53;2.22;;;-2.40;99.90;;;;;;5013826;28;20228;-80
2024/01/13 02:45:01;;;;;;;9.73;2.40;;;-2.30;99.90;;;;;;5014173;28;20205;-82
2024/01/13 02:47:38;;;;;;;6.60;3.63;;;-2.40;99.90;;;;;;5012617;28;20289;-80
2024/01/13 02:50:05;;;;;;;5.53;3.03;;;-2.50;99.90;;;;;;5011800;28;20216;-83
2024/01/13 02:52:31;;;;;;;6.55;3.83;;;-2.50;99.90;;;;;;5010203;28;20518;-83
2024/01/13 02:54:56;;;;;;;6.73;3.93;;;-2.60;99.90;;;;;;5011062;28;20192;-82
2024/01/13 02:57:21;;;;;;;1.33;1.23;;;-3.70;99.90;;;;;;5015887;28;20193;-79
2024/01/13 02:59:47;;;;;;;3.63;2.87;;;-2.70;99.90;;;;;;5014153;28;20280;-83
2024/01/13 03:02:12;;;;;;;3.43;1.80;;;-1.40;99.90;;;;;;5011789;28;20193;-84
2024/01/13 03:04:38;;;;;;;4.13;3.03;;;-2.80;99.90;;;;;;5025258;28;20181;-85
2024/01/13 03:07:03;;;;;;;12.63;3.87;;;-2.80;99.90;;;;;;5012650;28;20198;-83
2024/01/13 03:09:29;;;;;;;3.33;2.60;;;-2.80;99.90;;;;;;5019823;28;20297;-81
2024/01/13 03:11:55;;;;;;;11.67;4.37;;;-2.70;99.90;;;;;;5015959;28;22363;-84
2024/01/13 03:14:21;;;;;;;7.77;3.20;;;;;;;;;;5020345;28;20193;-83
2024/01/13 03:16:46;;;;;;;3.53;1.70;;;-2.80;99.90;;;;;;5009151;28;20456;-79
2024/01/13 03:19:12;;;;;;;8.43;3.03;;;-2.80;99.90;;;;;;5013398;28;20461;-80
2024/01/13 03:21:37;;;;;;;3.90;1.97;;;-2.80;99.90;;;;;;5013441;28;20197;-83
2024/01/13 03:24:03;;;;;;;10.40;3.40;;;-2.70;99.90;;;;;;5012722;28;20762;-79
2024/01/13 03:26:28;;;;;;;5.50;5.00;;;-2.80;99.90;;;;;;5027073;28;20194;-80
2024/01/13 03:28:54;;;;;;;4.47;1.80;;;-2.80;99.90;;;;;;5013540;28;20196;-83
2024/01/13 03:31:20;;;;;;;9.40;2.30;;;-2.90;99.90;;;;;;5012890;28;20206;-85
2024/01/13 03:33:45;;;;;;;4.73;2.80;;;-2.90;99.90;;;;;;5018123;28;20255;-80
2024/01/13 03:36:11;;;;;;;1.83;1.48;;;-2.80;99.90;;;;;;5017565;28;20197;-84
2024/01/13 03:38:37;;;;;;;4.70;3.70;;;-2.90;99.90;;;;;;5022594;28;20214;-80
2024/01/13 03:41:02;;;;;;;5.00;1.33;;;-2.90;99.90;;;;;;5019023;28;20251;-82
2024/01/13 03:43:28;;;;;;;1.03;1.03;;;;;;;;;;5014910;28;20740;-82
2024/01/13 03:45:54;;;;;;;4.30;2.70;;;-3.00;99.90;;;;;;5018389;28;20268;-79
2024/01/13 03:48:19;;;;;;;2.97;1.60;;;-3.00;99.90;;;;;;5013557;28;20515;-80
2024/01/13 03:50:45;;;;;;;3.27;2.97;;;-3.00;99.90;;;;;;5019897;28;20213;-82
2024/01/13 03:53:10;;;;;;;6.13;2.70;;;-3.10;99.90;;;;;;5016503;28;20688;-82
2024/01/13 03:55:37;;;;;;;6.53;2.08;;;-3.00;99.90;;;;;;5016602;28;20277;-84
2024/01/13 03:58:02;;;;;;;3.10;2.63;;;-2.90;99.90;;;;;;5017723;28;20286;-83
2024/01/13 04:00:29;;;;;;;11.23;4.50;;;-2.90;99.90;;;;;;4998025;28;20221;-83
2024/01/13 04:02:55;;;;;;;0.80;0.60;;;-2.90;99.90;;;;;;5012116;28;20554;-80
2024/01/13 04:05:20;;;;;;;6.83;3.90;;;-2.90;99.90;;;;;;5018978;28;20177;-79
2024/01/13 04:07:46;;;;;;;3.23;3.03;;;-2.90;99.90;;;;;;5022933;28;20254;-84
2024/01/13 04:10:12;;;;;;;5.10;2.77;;;-2.90;99.90;;;;;;5019705;28;20213;-79
2024/01/13 04:12:39;;;;;;;8.40;2.93;;;-3.00;99.90;;;;;;5029863;28;20471;-82
2024/01/13 04:15:05;;;;;;;3.67;2.63;;;-2.90;99.90;;;;;;5028551;28;20187;-84
2024/01/13 04:17:31;;;;;;;2.63;1.03;;;-2.90;99.90;;;;;;5019203;28;20188;-82
2024/01/13 04:19:56;;;;;;;3.00;2.70;;;-3.00;99.90;;;;;;5016069;28;20548;-79
2024/01/13 04:22:22;;;;;;;1.83;1.33;;;-2.90;99.90;;;;;;5018086;28;20266;-84
2024/01/13 04:24:47;;;;;;;2.10;2.00;;;-2.90;99.90;;;;;;5012488;28;20269;-82
2024/01/13 04:27:13;;;;;;;7.17;4.63;;;-2.90;99.90;;;;;;5018615;28;20356;-80
2024/01/13 04:29:38;;;;;;;3.03;2.30;;;-3.00;99.90;;;;;;5034402;28;20854;-81
2024/01/13 04:32:04;;;;;;;3.30;3.10;;;-3.00;99.90;;;;;;5014167;28;20218;-85
2024/01/13 04:34:30;;;;;;;2.05;1.95;;;-3.00;99.90;;;;;;5012416;28;20202;-80
2024/01/13 04:36:56;;;;;;;4.37;1.87;;;-2.90;99.90;;;;;;5015155;28;20240;-84
2024/01/13 04:39:21;;;;;;;4.97;3.00;;;-2.80;99.90;;;;;;5020055;28;20797;-84
2024/01/13 04:41:47;;;;;;;4.23;3.83;;;-2.70;99.90;;;;;;5018690;28;20186;-82
2024/01/13 04:44:12;;;;;;;4.80;1.80;;;-2.80;99.90;;;;;;5018695;28;20605;-82
2024/01/13 04:46:38;;;;;;;9.47;4.13;;;-2.70;99.90;;;;;;5023511;28;20201;-84
2024/01/13 04:49:03;;;;;;;3.23;1.50;;;-2.80;99.90;;;;;;5012214;28;22287;-79
2024/01/13 04:51:29;;;;;;;7.63;2.10;;;-2.80;99.90;;;;;;5010121;28;20217;-84
2024/01/13 04:53:56;;;;;;;4.20;2.50;;;-2.80;99.90;;;;;;5016248;28;20205;-84
2024/01/13 04:56:22;;;;;;;4.53;2.78;;;-2.80;99.90;;;;;;5012899;28;20837;-84
2024/01/13 04:58:47;;;;;;;5.50;4.37;;;-2.80;99.90;;;;;;5019474;28;20210;-81
2024/01/13 05:01:13;;;;;;;2.20;1.23;;;-2.80;99.90;;;;;;5012571;28;20189;-83
2024/01/13 05:03:38;;;;;;;5.50;2.97;;;-2.80;99.90;;;;;;5013256;28;20876;-82
2024/01/13 05:06:04;;;;;;;6.87;1.53;;;-2.80;99.90;;;;;;5010817;28;20246;-81
2024/01/13 05:08:31;;;;;;;9.30;4.30;;;-2.80;99.90;;;;;;5011494;28;20648;-79
2024/01/13 05:10:56;;;;;;;10.80;3.70;;;-2.70;99.90;;;;;;5012816;28;20210;-80
2024/01/13 05:13:22;;;;;;;5.47;3.47;;;-2.70;99.90;;;;;;5028078;28;20197;-80
2024/01/13 05:15:47;;;;;;;1.37;1.27;;;-2.70;99.90;;;;;;5012947;28;20279;-82
2024/01/13 05:18:13;;;;;;;6.67;2.93;;;-2.70;99.90;;;;;;5013338;28;20212;-81
2024/01/13 05:20:38;;;;;;;8.50;4.53;;;-2.70;99.90;;;;;;5029453;28;20201;-81
2024/01/13 05:23:04;;;;;;;22.67;4.60;;;-2.60;99.90;;;;;;5018742;28;20229;-81
2024/01/13 05:25:30;;;;;;;3.50;3.20;;;-2.60;99.90;;;;;;5019471;28;20256;-83
2024/01/13 05:27:55;;;;;;;3.10;2.60;;;-2.50;99.90;;;;;;5014125;28;20684;-82
2024/01/13 05:30:21;;;;;;;8.10;4.40;;;-2.50;99.90;;;;;;5012756;28;20218;-84
2024/01/13 05:32:47;;;;;;;6.57;3.93;;;-2.50;99.90;;;;;;5009244;28;20500;-82
2024/01/13 05:35:12;;;;;;;14.07;4.83;;;-2.50;99.90;;;;;;5014976;28;20491;-80
2024/01/13 05:37:38;;;;;;;9.27;1.63;;;-2.70;99.90;;;;;;5016238;28;20193;-83
2024/01/13 05:40:05;;;;;;;5.20;2.20;;;-2.60;99.90;;;;;;5011283;28;20209;-85
2024/01/13 05:42:31;;;;;;;1.77;1.67;;;-2.60;99.90;;;;;;5010717;28;20194;-79
2024/01/13 05:44:56;;;;;;;2.43;2.00;;;-2.60;99.90;;;;;;5014640;28;20249;-83
2024/01/13 05:47:22;;;;;;;7.17;4.13;;;-2.50;99.90;;;;;;5013436;28;20446;-85
2024/01/13 05:49:48;;;;;;;3.60;2.60;;;;;;;;;;5013867;28;20562;-81
2024/01/13 05:52:13;;;;;;;4.97;3.13;;;-2.40;99.90;;;;;;5010449;28;20220;-77
2024/01/13 05:54:39;;;;;;;1.63;1.33;;;-2.50;99.90;;;;;;5023182;28;20863;-82
2024/01/13 05:57:04;;;;;;;3.07;2.63;;;-2.60;99.90;;;;;;5016834;28;20210;-83
2024/01/13 05:59:30;;;;;;;4.77;2.10;;;-2.70;99.90;;;;;;5023298;28;20313;-78
2024/01/13 06:01:56;;;;;;;5.03;2.33;;;-2.80;99.90;;;;;;5015566;28;20197;-81
2024/01/13 06:04:22;;;;;;;10.13;5.50;;;-2.80;99.90;;;;;;5011033;28;20265;-81
2024/01/13 06:06:47;;;;;;;5.30;2.53;;;-2.80;99.90;;;;;;5016647;28;20436;-82
2024/01/13 06:09:13;;;;;;;5.83;3.53;;;-2.80;99.90;;;;;;5008721;28;20197;-81
2024/01/13 06:11:40;;;;;;;3.03;2.83;;;-3.00;99.90;;;;;;5015898;28;20201;-82
2024/01/13 06:14:06;;;;;;;2.15;2.00;;;-3.00;99.90;;;;;;5025030;28;20269;-85
2024/01/13 06:16:32;;;;;;;2.50;1.70;;;;;;;;;;5015978;28;20994;-83
2024/01/13 06:18:57;;;;;;;12.10;2.13;;;-3.00;99.90;;;;;;5010531;28;20719;-82
2024/01/13 06:21:23;;;;;;;3.03;1.63;;;-3.00;99.90;;;;;;5009650;28;20271;-84
2024/01/13 06:23:49;;;;;;;7.10;2.43;;;-2.90;99.90;;;;;;5012653;28;20184;-84
2024/01/13 06:26:14;;;;;;;5.47;2.83;;;-2.90;99.90;;;;;;5012832;28;20718;-82
2024/01/13 06:28:40;;;;;;;6.90;2.53;;;;;;;;;;5014891;28;20524;-83
2024/01/13 06:31:05;;;;;;;7.03;3.23;;;-2.80;99.90;;;;;;5014576;28;20236;-78
2024/01/13 06:33:31;;;;;;;5.80;3.03;;;-2.80;99.90;;;;;;5030349;28;20580;-83
2024/01/13 06:35:57;;;;;;;7.97;2.87;;;-2.80;99.90;;;;;;5016575;28;20197;-82
2024/01/13 06:38:23;;;;;;;9.60;2.95;;;-2.90;99.90;;;;;;5016381;28;20562;-86
2024/01/13 06:40:49;;;;;;;9.37;3.90;;;-3.10;99.90;;;;;;5009017;28;20210;-83
2024/01/13 06:43:14;;;;;;;11.53;2.40;;;-2.90;99.90;;;;;;5013870;28;20198;-80
2024/01/13 06:45:40;;;;;;;2.13;1.93;;;-3.00;99.90;;;;;;5017257;28;20202;-85
2024/01/13 06:48:05;;;;;;;9.80;3.53;;;-2.90;99.90;;;;;;5015315;28;20193;-82
2024/01/13 06:50:32;;;;;;;5.03;2.40;;;-2.90;99.90;;;;;;5015689;28;20202;-85
2024/01/13 06:52:57;;;;;;;3.33;3.00;;;-2.90;99.90;;;;;;5009160;28;20206;-82
2024/01/13 06:55:24;;;;;;;1.90;0.63;;;;;;;;;;5012304;28;20268;-84
2024/01/13 06:57:50;;;;;;;2.30;2.17;;;-2.90;99.90;;;;;;5011886;28;20185;-82
2024/01/13 07:00:17;;;;;;;10.80;4.38;;;-2.90;99.90;;;;;;5020554;28;20428;-79
2024/01/13 07:02:43;;;;;;;4.15;2.67;;;-3.00;99.90;;;;;;5017978;28;20225;-84
2024/01/13 07:05:10;;;;;;;7.15;1.83;;;-2.90;99.90;;;;;;5014154;28;20204;-81
2024/01/13 07:07:36;;;;;;;3.00;2.25;;;-2.90;99.90;;;;;;5010016;28;20277;-80
2024/01/13 07:10:01;;;;;;;4.83;3.10;;;-3.00;99.90;;;;;;5005041;28;20220;-86
2024/01/13 07:12:27;;;;;;;1.57;1.47;;;-3.10;99.90;;;;;;5009869;28;20875;-81
2024/01/13 07:14:52;;;;;;;11.13;2.27;;;-3.10;99.90;;;;;;5005092;28;20205;-84
2024/01/13 07:17:18;;;;;;;4.70;2.67;;;;;;;;;;5009968;28;20301;-83
2024/01/13 07:19:44;;;;;;;2.05;0.90;;;-3.10;99.90;;;;;;5010875;28;20210;-83
2024/01/13 07:22:09;;;;;;;4.00;1.83;;;-3.00;99.90;;;;;;5005026;28;20189;-85
2024/01/13 07:24:35;;;;;;;9.70;3.53;;;-3.10;99.90;;;;;;5008170;28;20290;-81
2024/01/13 07:27:00;;;;;;;9.40;4.23;;;-3.10;99.90;;;;;;5008894;28;20203;-83
2024/01/13 07:29:26;;;;;;;5.80;3.23;;;-3.00;99.90;;;;;;5009945;28;20265;-85
2024/01/13 07:31:51;;;;;;;3.93;2.97;;;-2.90;99.90;;;;;;5008545;28;20276;-85
2024/01/13 07:34:17;;;;;;;1.03;0.63;;;-2.90;99.90;;;;;;5008118;28;20190;-80
2024/01/13 07:36:42;;;;;;;5.27;3.23;;;-3.00;99.90;;;;;;5007174;28;20201;-80
2024/01/13 07:39:09;;;;;;;7.50;3.60;;;-2.90;99.90;;;;;;5015399;28;20261;-83
2024/01/13 07:41:35;;;;;;;5.65;3.60;;;-2.90;99.90;;;;;;5006452;28;20202;-82
2024/01/13 07:44:01;;;;;;;9.27;5.80;;;-2.90;99.90;;;;;;5009072;28;20393;-83
2024/01/13 07:46:26;;;;;;;5.73;3.97;;;-2.80;99.90;;;;;;5025994;28;21226;-79
2024/01/13 07:48:52;;;;;;;2.20;0.80;;;-2.80;99.90;;;;;;5006624;28;20302;-77
2024/01/13 07:51:18;;;;;;;7.97;2.10;;;-2.90;99.90;;;;;;5010551;28;21069;-81
2024/01/13 07:53:44;;;;;;;15.05;3.85;;;-2.90;99.90;;;;;;5010414;28;20448;-79
2024/01/13 07:56:10;;;;;;;2.93;2.27;;;-2.80;99.90;;;;;;5011606;28;20201;-81
2024/01/13 07:58:35;;;;;;;3.97;1.27;;;-2.70;99.90;;;;;;5012927;28;20178;-80
2024/01/13 08:01:02;;;;;;;5.47;2.80;;;-2.70;99.90;;;;;;5010354;28;21144;-81
2024/01/13 08:03:28;;;;;;;10.90;3.47;;;-2.60;99.90;;;;;;5010286;28;20185;-82
2024/01/13 08:05:55;;;;;;;2.10;1.90;;;-2.50;99.90;;;;;;5005775;28;20337;-83
2024/01/13 08:08:20;;;;;;;2.25;2.03;;;-2.60;99.90;;;;;;5020030;28;20190;-78
2024/01/13 08:10:46;;;;;;;6.13;4.60;;;-2.50;99.90;;;;;;5024843;28;20215;-82
2024/01/13 08:13:14;;;;;;;6.75;3.67;;;-2.50;99.90;;;;;;5020876;28;20217;-81
2024/01/13 08:15:39;;;;;;;4.97;4.53;;;-2.60;99.90;;;;;;5023717;28;20190;-82
2024/01/13 08:18:05;;;;;;;14.23;3.60;;;-2.60;99.90;;;;;;5017273;28;20445;-86
2024/01/13 08:20:31;;;;;;;9.43;3.83;;;-2.70;99.90;;;;;;5014599;28;20237;-85
2024/01/13 08:22:57;;;;;;;3.60;3.17;;;-2.60;99.90;;;;;;5012081;28;20273;-86
2024/01/13 08:25:23;;;;;;;8.73;4.87;;;;;;;;;;5015152;28;20242;-84
2024/01/13 08:27:49;;;;;;;5.03;2.57;;;-2.50;99.90;;;;;;5020485;28;20189;-83
2024/01/13 08:30:14;;;;;;;6.05;2.30;;;-2.50;99.90;;;;;;5012955;28;20744;-84
2024/01/13 08:32:40;;;;;;;6.93;4.20;;;-2.70;99.90;;;;;;5013123;28;20202;-81
2024/01/13 08:35:07;;;;;;;2.73;2.00;;;-2.60;99.90;;;;;;5012802;28;20177;-80
2024/01/13 08:37:32;;;;;;;7.80;2.88;;;-2.60;99.90;;;;;;5031456;28;20182;-84
2024/01/13 08:39:58;;;;;;;5.57;3.17;;;-2.50;99.90;;;;;;5017600;28;20398;-83
2024/01/13 08:42:23;;;;;;;8.20;2.07;;;-2.40;99.90;;;;;;5013695;28;20281;-81
2024/01/13 08:44:49;;;;;;;5.03;1.93;;;-2.30;99.90;;;;;;5011536;28;20193;-82
2024/01/13 08:47:15;;;;;;;8.23;3.47;;;-2.30;99.90;;;;;;5017085;28;20570;-83
2024/01/13 08:49:40;;;;;;;2.07;1.50;;;-2.40;99.90;;;;;;5019305;28;20522;-78
2024/01/13 08:52:09;;;;;;;9.93;3.77;;;;;;;;;;5022781;28;20233;-84
2024/01/13 08:54:35;;;;;;;3.20;3.03;;;-2.20;99.90;;;;;;5013454;28;20298;-80
2024/01/13 08:57:00;;;;;;;11.13;3.95;;;-2.20;99.90;;;;;;5012150;28;20196;-84
2024/01/13 08:59:26;;;;;;;4.40;1.60;;;-2.20;99.90;;;;;;5013078;28;20205;-83
2024/01/13 09:01:51;;;;;;;5.47;1.80;;;-2.20;99.90;;;;;;5012693;28;20209;-81
2024/01/13 09:04:18;;;;;;;6.90;2.50;;;-2.20;99.90;;;;;;5010191;28;20193;-85
2024/01/13 09:06:44;;;;;;;4.22;1.83;;;-2.20;99.90;;;;;;5007736;28;20559;-84
2024/01/13 09:09:10;;;;;;;2.73;2.37;;;-2.10;99.90;;;;;;5012248;28;20192;-82
2024/01/13 09:11:36;;;;;;;9.10;3.80;;;-2.20;99.90;;;;;;5010764;28;20221;-84
2024/01/13 09:14:02;;;;;;;4.20;3.17;;;;;;;;;;5009204;28;20183;-80
2024/01/13 09:16:27;;;;;;;5.70;1.73;;;-2.30;99.90;;;;;;5020181;28;20209;-82
2024/01/13 09:18:54;;;;;;;5.73;4.00;;;;;;;;;;5035037;28;20182;-79
2024/01/13 09:21:19;;;;;;;3.00;2.55;;;-2.30;99.90;;;;;;5035472;28;20195;-83
2024/01/13 09:23:46;;;;;;;2.43;1.43;;;-2.20;99.90;;;;;;5019061;28;20197;-82
2024/01/13 09:26:12;;;;;;;8.95;2.72;;;-2.10;99.90;;;;;;5025346;28;20206;-84
2024/01/13 09:28:37;;;;;;;10.07;3.60;;;-2.30;99.90;;;;;;5021152;28;20209;-82
2024/01/13 09:31:03;;;;;;;4.53;1.90;;;-2.20;99.90;;;;;;5019643;28;20206;-81
2024/01/13 09:33:28;;;;;;;2.30;2.20;;;-2.10;99.90;;;;;;5018306;28;20206;-84
2024/01/13 09:35:54;;;;;;;2.60;2.03;;;-2.10;99.90;;;;;;5019172;28;20735;-82
2024/01/13 09:38:20;;;;;;;9.23;2.83;;;-2.10;99.90;;;;;;5011650;28;20175;-82
2024/01/13 09:40:46;;;;;;;7.63;2.30;;;-2.00;99.90;;;;;;5004666;28;20488;-83
2024/01/13 09:43:25;;;;;;;2.75;1.90;;;-1.90;99.90;;;;;;5011522;28;20308;-82
2024/01/13 09:45:52;;;;;;;4.72;3.42;;;-2.00;99.90;;;;;;5007259;28;20200;-84
2024/01/13 09:48:19;;;;;;;3.75;2.35;;;-2.10;99.90;;;;;;5010497;28;20214;-80
2024/01/13 09:50:55;;;;;;;4.40;2.15;;;-2.20;99.90;;;;;;5006169;28;20206;-81
2024/01/13 09:53:29;;;;;;;9.75;3.47;;;-2.10;99.90;;;;;;5005833;28;20428;-81
2024/01/13 09:56:05;;;;;;;10.50;2.67;;;-2.20;99.90;;;;;;5005922;28;21260;-82
2024/01/13 09:58:31;;;;;;;7.20;3.50;;;-2.00;99.90;;;;;;5010094;28;20193;-80
2024/01/13 10:00:59;;;;;;;2.80;2.60;;;-2.00;99.90;;;;;;5008426;28;21170;-83
2024/01/13 10:03:25;;;;;;;11.77;3.10;;;-1.90;99.90;;;;;;5010827;28;20198;-85
2024/01/13 10:05:52;;;;;;;8.13;2.53;;;-1.80;99.90;;;;;;5005160;28;20181;-83
2024/01/13 10:08:30;;;;;;;13.52;3.28;;;-1.70;99.90;;;;;;5015267;28;20233;-81
2024/01/13 10:10:56;;;;;;;9.80;4.85;;;-1.80;99.90;;;;;;5002412;28;20266;-83
2024/01/13 10:13:25;;;;;;;12.80;3.80;;;-2.00;99.90;;;;;;5009850;28;20210;-83
2024/01/13 10:15:54;;;;;;;5.07;1.83;;;-1.90;99.90;;;;;;5010333;28;20737;-82
2024/01/13 10:18:21;;;;;;;5.47;1.95;;;-1.80;99.90;;;;;;5023843;28;20198;-82
2024/01/13 10:20:46;;;;;;;11.30;4.63;;;-1.80;99.90;;;;;;5016039;28;20256;-84
2024/01/13 10:23:12;;;;;;;5.57;4.53;;;-1.80;99.90;;;;;;5016611;28;23084;-81
2024/01/13 10:25:38;;;;;;;8.00;4.32;;;-1.80;99.90;;;;;;5008104;28;20264;-78
2024/01/13 10:28:04;;;;;;;10.23;4.90;;;-1.70;99.90;;;;;;5012738;28;20194;-78
2024/01/13 10:30:30;;;;;;;4.37;1.93;;;;;;;;;;5021534;28;20220;-81
2024/01/13 10:32:59;;;;;;;7.03;3.80;;;-1.60;99.90;;;;;;5012701;28;20471;-79
2024/01/13 10:35:25;;;;;;;30.25;4.40;;;;;;;;;;5010749;28;20197;-80
2024/01/13 10:37:50;;;;;;;6.78;4.20;;;-1.60;99.90;;;;;;4999520;28;20182;-83
2024/01/13 10:40:16;;;;;;;12.43;5.10;;;;;;;;;;5041078;28;20214;-79
2024/01/13 10:42:46;;;;;;;6.03;5.27;;;-1.30;99.90;;;;;;5011865;28;20251;-79
2024/01/13 10:45:16;;;;;;;12.43;3.67;;;-1.40;99.90;;;;;;5009915;28;20586;-83
2024/01/13 10:47:44;;;;;;;10.40;3.75;;;-1.50;99.90;;;;;;5004613;28;20182;-79
2024/01/13 10:50:11;;;;;;;6.70;3.65;;;-1.60;99.90;;;;;;5006783;28;20197;-84
2024/01/13 10:53:05;;;;;;;9.38;4.22;;;-1.50;99.90;;;;;;5009730;28;20227;-81
2024/01/13 10:55:31;;;;;;;4.82;3.28;;;-1.60;99.90;;;;;;5012953;28;20190;-83
2024/01/13 10:57:59;;;;;;;1.05;1.05;;;-1.50;99.90;;;;;;5017292;28;20197;-84
2024/01/13 11:00:27;;;;;;;8.73;4.00;;;-1.80;99.90;;;;;;5013432;28;20281;-84
2024/01/13 11:02:53;;;;;;;2.83;2.28;;;-1.80;99.90;;;;;;5014932;28;20201;-82
2024/01/13 11:05:22;;;;;;;6.93;3.80;;;-1.80;99.90;;;;;;5005469;28;20190;-82
2024/01/13 11:07:48;;;;;;;2.15;1.90;;;-1.70;99.90;;;;;;5008705;28;20315;-81
2024/01/13 11:10:23;;;;;;;3.95;2.72;;;-1.70;99.90;;;;;;5002327;28;20275;-80
2024/01/13 11:13:18;;;;;;;8.85;4.57;;;-1.70;99.90;;;;;;5003659;28;22952;-84
2024/01/13 11:15:49;;;;;;;8.30;3.58;;;-1.60;99.90;;;;;;5005859;28;20190;-81
2024/01/13 11:18:18;;;;;;;3.72;3.40;;;-1.50;99.90;;;;;;5008315;28;20664;-80
2024/01/13 11:21:07;;;;;;;4.20;1.88;;;-1.60;99.90;;;;;;5012779;28;20201;-85
2024/01/13 11:23:46;;;;;;;3.00;1.42;;;-1.80;99.90;;;;;;5006805;28;20193;-82
2024/01/13 11:26:16;;;;;;;4.55;3.60;;;-1.80;99.90;;;;;;5007786;28;20186;-83
2024/01/13 11:28:47;;;;;;;5.50;2.40;;;-1.70;99.90;;;;;;5007648;28;20813;-81
2024/01/13 11:31:41;;;;;;;20.55;4.82;;;-1.70;99.90;;;;;;5014967;28;20760;-81
2024/01/13 11:34:09;;;;;;;4.30;2.00;;;-1.70;99.90;;;;;;5012452;28;20189;-83
2024/01/13 11:36:39;;;;;;;2.75;2.17;;;-1.70;99.90;;;;;;5024706;28;20196;-84
2024/01/13 11:39:06;;;;;;;7.07;3.22;;;-1.80;99.90;;;;;;5019312;28;20193;-83
2024/01/13 11:41:49;;;;;;;23.83;5.60;;;-1.80;99.90;;;;;;5011217;28;20189;-82
2024/01/13 11:44:23;;;;;;;10.73;2.83;;;-1.70;99.90;;;;;;5014294;28;20190;-78
2024/01/13 11:47:04;;;;;;;9.15;2.08;;;-1.60;99.90;;;;;;5021719;28;20206;-80
2024/01/13 11:49:44;;;;;;;4.85;3.58;;;-1.50;99.90;;;;;;5018903;28;20308;-84
2024/01/13 11:52:29;;;;;;;9.57;5.57;;;-1.60;99.90;;;;;;5027989;28;20199;-79
2024/01/13 11:54:56;;;;;;;21.33;5.40;;;-1.60;99.90;;;;;;5020297;28;20209;-80
2024/01/13 11:57:21;;;;;;;20.73;5.32;;;-1.90;99.90;;;;;;5033063;28;20519;-81
2024/01/13 11:59:47;;;;;;;7.10;3.83;;;-1.90;99.90;;;;;;5029892;28;20784;-79
2024/01/13 12:02:13;;;;;;;4.47;2.77;;;-2.00;99.90;;;;;;5025358;28;20200;-81
2024/01/13 12:04:41;;;;;;;4.17;3.77;;;-2.10;99.90;;;;;;5020767;28;20240;-85
2024/01/13 12:07:09;;;;;;;5.60;2.58;;;-2.00;99.90;;;;;;5015449;28;20502;-86
2024/01/13 12:09:36;;;;;;;14.00;5.20;;;-1.90;99.90;;;;;;5014035;28;20209;-81
2024/01/13 12:12:07;;;;;;;10.90;4.55;;;-1.90;99.90;;;;;;5016331;28;20213;-83
2024/01/13 12:14:36;;;;;;;17.33;4.70;;;-1.90;99.90;;;;;;5017300;28;20182;-82
2024/01/13 12:17:03;;;;;;;10.57;4.07;;;-1.80;99.90;;;;;;5023773;28;20265;-80
2024/01/13 12:19:38;;;;;;;17.13;4.63;;;-1.80;99.90;;;;;;5022971;28;20198;-81
2024/01/13 12:22:05;;;;;;;15.88;5.22;;;-1.60;99.90;;;;;;5017265;28;20188;-83
2024/01/13 12:24:32;;;;;;;3.25;1.50;;;-1.50;99.90;;;;;;5014816;28;20232;-77
2024/01/13 12:26:58;;;;;;;9.00;3.03;;;-1.70;99.90;;;;;;5017201;28;20207;-81
2024/01/13 12:29:29;;;;;;;9.45;5.30;;;-1.70;99.90;;;;;;5014305;28;20703;-81
2024/01/13 12:31:56;;;;;;;6.45;2.75;;;-1.60;99.90;;;;;;5014863;28;20249;-82
2024/01/13 12:34:21;;;;;;;9.30;3.15;;;-1.80;99.90;;;;;;5013866;28;20502;-80
2024/01/13 12:36:47;;;;;;;14.03;5.13;;;-1.70;99.90;;;;;;5029403;28;20821;-83
2024/01/13 12:39:12;;;;;;;2.20;1.70;;;-1.80;99.90;;;;;;5011742;28;20196;-80
2024/01/13 12:41:38;;;;;;;8.53;4.00;;;-1.90;99.90;;;;;;5014131;28;20195;-83
2024/01/13 12:44:04;;;;;;;4.37;1.93;;;-2.00;99.90;;;;;;5028618;28;20189;-81
2024/01/13 12:46:34;;;;;;;2.27;2.10;;;-1.90;99.90;;;;;;5020673;28;20267;-81
2024/01/13 12:49:17;;;;;;;1.88;1.70;;;-2.10;99.90;;;;;;5027402;28;20449;-82